Terminal Aerodrome Forecast
Issued by NWS Grand Forks, ND

Home | Current Version | Previous Version | Graphics & Text | Print | Product List | Glossary On
Versions: 1 2 3 4 5 6 7 8 9 10 11 12 13 14 15 16 17 18 19 20
071
FTUS43 KFGF 210930 AAA
TAFGFK
TAF AMD
KGFK 210930Z 2110/2206 03015KT P6SM -RA OVC035
      TEMPO 2110/2111 BKN015
     FM211100 01014KT P6SM -RA OVC020
     FM211300 36010KT 6SM -RA OVC015
     FM211700 34013G21KT 6SM -RA OVC020
     FM212300 33012KT P6SM BKN025 OVC040=

USA.gov is the U.S. government's official web portal to all federal, state and local government web resources and services.